Time;durP1;ratioP1;P1;durP2;ratioP2;P2;SDS_P1;SDS_P2;PMS_P1;PMS_P2;Temp;Humidity;BMP_temperature;BMP_pressure;BME280_temperature;BME280_humidity;BME280_pressure;Samples;Min_cycle;Max_cycle;Signal;HPM_P1;HPM_P2
2023/02/14 00:01:26;;;;;;;;;;;;;;;;;;4394249;32;19968;-74
2023/02/14 00:03:51;;;;;;;;;;;;;;;;;;4393229;32;19938;-75
2023/02/14 00:06:17;;;;;;;;;;;;;;;;;;4391865;32;19938;-73
2023/02/14 00:08:43;;;;;;;;;;;;;;;;;;4394203;32;19930;-74
2023/02/14 00:11:08;;;;;;;;;;;;;;;;;;4393669;32;19942;-74
2023/02/14 00:13:33;;;;;;;;;;;;;;;;;;4394836;32;20020;-74
2023/02/14 00:15:58;;;;;;;;;;;;;;;;;;4395075;32;19957;-75
2023/02/14 00:19:01;;;;;;;;;;;;;;;;;;4392703;32;19946;-75
2023/02/14 00:21:09;;;;;;;;;;;;;;;;;;4393090;32;19961;-74
2023/02/14 00:23:34;;;;;;;;;;;;;;;;;;4393203;32;19945;-75
2023/02/14 00:25:59;;;;;;;;;;;;;;;;;;4393216;32;20002;-75
2023/02/14 00:28:24;;;;;;;;;;;;;;;;;;4392452;32;19938;-75
2023/02/14 00:30:49;;;;;;;;;;;;;;;;;;4392827;32;19970;-74
2023/02/14 00:33:14;;;;;;;;;;;;;;;;;;4392943;32;19957;-76
2023/02/14 00:35:39;;;;;;;;;;;;;;;;;;4391519;32;19970;-74
2023/02/14 00:38:04;;;;;;;;;;;;;;;;;;4392837;32;19933;-76
2023/02/14 00:40:29;;;;;;;;;;;;;;;;;;4392702;32;20275;-75
2023/02/14 00:42:55;;;;;;;;;;;;;;;;;;4392729;32;19946;-74
2023/02/14 00:45:20;;;;;;;;;;;;;;;;;;4394117;32;19945;-75
2023/02/14 00:47:45;;;;;;;;;;;;;;;;;;4390465;32;19961;-75
2023/02/14 00:50:10;;;;;;;;;;;;;;;;;;4392552;32;19942;-75
2023/02/14 00:52:35;;;;;;;;;;;;;;;;;;4393073;32;19971;-75
2023/02/14 00:55:00;;;;;;;;;;;;;;;;;;4393345;32;19942;-74
2023/02/14 00:57:25;;;;;;;;;;;;;;;;;;4391389;32;19942;-73
2023/02/14 00:59:50;;;;;;;;;;;;;;;;;;4392769;32;19942;-74
2023/02/14 01:02:15;;;;;;;;;;;;;;;;;;4390866;32;19960;-74
2023/02/14 01:04:40;;;;;;;;;;;;;;;;;;4391041;32;20274;-74
2023/02/14 01:07:06;;;;;;;;;;;;;;;;;;4393928;32;20324;-74
2023/02/14 01:09:31;;;;;;;;;;;;;;;;;;4394135;32;20267;-75
2023/02/14 01:11:56;;;;;;;;;;;;;;;;;;4391686;32;20017;-74
2023/02/14 01:14:21;;;;;;;;;;;;;;;;;;4392471;32;19938;-74
2023/02/14 01:16:46;;;;;;;;;;;;;;;;;;4395671;32;19951;-74
2023/02/14 01:19:11;;;;;;;;;;;;;;;;;;4394979;32;19987;-75
2023/02/14 01:21:36;;;;;;;;;;;;;;;;;;4389887;32;20349;-75
2023/02/14 01:24:01;;;;;;;;;;;;;;;;;;4393766;32;19975;-74
2023/02/14 01:26:26;;;;;;;;;;;;;;;;;;4392573;32;19942;-75
2023/02/14 01:28:51;;;;;;;;;;;;;;;;;;4390878;32;19961;-75
2023/02/14 01:31:17;;;;;;;;;;;;;;;;;;4391061;32;19972;-74
2023/02/14 01:33:42;;;;;;;;;;;;;;;;;;4391516;32;19946;-74
2023/02/14 01:36:07;;;;;;;;;;;;;;;;;;4394442;32;19953;-74
2023/02/14 01:38:32;;;;;;;;;;;;;;;;;;4393566;32;19946;-75
2023/02/14 01:40:57;;;;;;;;;;;;;;;;;;4392129;32;19997;-74
2023/02/14 01:43:22;;;;;;;;;;;;;;;;;;4390536;32;19942;-74
2023/02/14 01:45:47;;;;;;;;;;;;;;;;;;4393063;32;19942;-73
2023/02/14 01:48:12;;;;;;;;;;;;;;;;;;4391607;32;19955;-73
2023/02/14 01:50:38;;;;;;;;;;;;;;;;;;4390187;32;19980;-74
2023/02/14 01:53:03;;;;;;;;;;;;;;;;;;4392314;32;19933;-75
2023/02/14 01:55:28;;;;;;;;;;;;;;;;;;4393131;32;19955;-75
2023/02/14 01:57:53;;;;;;;;;;;;;;;;;;4393606;32;19933;-75
2023/02/14 02:03:02;;;;;;;;;;;;;;;;;;4393276;32;19941;-75
2023/02/14 02:05:27;;;;;;;;;;;;;;;;;;4390255;32;19941;-75
2023/02/14 02:07:52;;;;;;;;;;;;;;;;;;4391856;32;19987;-75
2023/02/14 02:10:17;;;;;;;;;;;;;;;;;;4390056;32;20283;-75
2023/02/14 02:12:42;;;;;;;;;;;;;;;;;;4391704;32;20326;-75
2023/02/14 02:15:07;;;;;;;;;;;;;;;;;;4391865;32;20205;-73
2023/02/14 02:17:32;;;;;;;;;;;;;;;;;;4391203;32;19942;-75
2023/02/14 02:19:58;;;;;;;;;;;;;;;;;;4389885;32;19968;-74
2023/02/14 02:22:23;;;;;;;;;;;;;;;;;;4392523;32;19996;-74
2023/02/14 02:24:48;;;;;;;;;;;;;;;;;;4391307;32;19938;-75
2023/02/14 02:27:13;;;;;;;;;;;;;;;;;;4391985;32;19945;-75
2023/02/14 02:29:39;;;;;;;;;;;;;;;;;;4391069;32;19934;-75
2023/02/14 02:32:05;;;;;;;;;;;;;;;;;;4390145;32;20280;-75
2023/02/14 02:34:30;;;;;;;;;;;;;;;;;;4392847;32;19949;-75
2023/02/14 02:36:55;;;;;;;;;;;;;;;;;;4392980;32;19944;-74
2023/02/14 02:39:20;;;;;;;;;;;;;;;;;;4390347;32;19965;-74
2023/02/14 02:41:45;;;;;;;;;;;;;;;;;;4391304;32;20206;-74
2023/02/14 02:44:10;;;;;;;;;;;;;;;;;;4390726;32;19941;-75
2023/02/14 02:46:48;;;;;;;;;;;;;;;;;;4390884;32;19953;-75
2023/02/14 02:49:13;;;;;;;;;;;;;;;;;;4391228;32;19942;-75
2023/02/14 02:54:22;;;;;;;;;;;;;;;;;;4392044;32;20350;-76
2023/02/14 02:56:48;;;;;;;;;;;;;;;;;;4390706;32;20312;-74
2023/02/14 02:59:19;;;;;;;;;;;;;;;;;;4391491;32;20305;-75
2023/02/14 03:01:45;;;;;;;;;;;;;;;;;;4392741;32;19941;-73
2023/02/14 03:06:54;;;;;;;;;;;;;;;;;;4390387;32;20350;-74
2023/02/14 03:09:19;;;;;;;;;;;;;;;;;;4390369;32;20531;-74
2023/02/14 03:11:44;;;;;;;;;;;;;;;;;;4390125;32;19957;-74
2023/02/14 03:14:09;;;;;;;;;;;;;;;;;;4389290;32;19944;-74
2023/02/14 03:16:34;;;;;;;;;;;;;;;;;;4389889;32;19944;-74
2023/02/14 03:21:43;;;;;;;;;;;;;;;;;;4390463;32;19988;-74
2023/02/14 03:24:09;;;;;;;;;;;;;;;;;;4390417;32;19997;-75
2023/02/14 03:26:34;;;;;;;;;;;;;;;;;;4390465;32;20280;-75
2023/02/14 03:28:59;;;;;;;;;;;;;;;;;;4390947;32;19969;-75
2023/02/14 03:31:24;;;;;;;;;;;;;;;;;;4390500;32;19952;-75
2023/02/14 03:33:49;;;;;;;;;;;;;;;;;;4391384;32;19969;-75
2023/02/14 03:36:14;;;;;;;;;;;;;;;;;;4391316;32;20367;-75
2023/02/14 03:38:39;;;;;;;;;;;;;;;;;;4391792;32;19981;-74
2023/02/14 03:41:04;;;;;;;;;;;;;;;;;;4391013;32;20013;-74
2023/02/14 03:43:29;;;;;;;;;;;;;;;;;;4390105;32;19969;-74
2023/02/14 03:45:55;;;;;;;;;;;;;;;;;;4391341;32;19975;-74
2023/02/14 03:48:20;;;;;;;;;;;;;;;;;;4390835;32;20265;-75
2023/02/14 03:50:45;;;;;;;;;;;;;;;;;;4390445;32;20324;-75
2023/02/14 03:53:10;;;;;;;;;;;;;;;;;;4389888;32;19957;-75
2023/02/14 03:55:35;;;;;;;;;;;;;;;;;;4390146;32;19971;-74
2023/02/14 03:58:00;;;;;;;;;;;;;;;;;;4388977;32;19942;-74
2023/02/14 04:00:25;;;;;;;;;;;;;;;;;;4389915;32;19969;-74
2023/02/14 04:02:50;;;;;;;;;;;;;;;;;;4390312;32;19934;-74
2023/02/14 04:05:15;;;;;;;;;;;;;;;;;;4390243;32;19973;-75
2023/02/14 04:07:40;;;;;;;;;;;;;;;;;;4388922;32;19941;-75
2023/02/14 04:10:06;;;;;;;;;;;;;;;;;;4390729;32;19934;-75
2023/02/14 04:12:31;;;;;;;;;;;;;;;;;;4389130;32;19965;-74
2023/02/14 04:14:56;;;;;;;;;;;;;;;;;;4388682;32;20299;-73
2023/02/14 04:20:05;;;;;;;;;;;;;;;;;;4391679;32;20255;-75
2023/02/14 04:22:30;;;;;;;;;;;;;;;;;;4390845;32;19949;-74
2023/02/14 04:24:55;;;;;;;;;;;;;;;;;;4390678;32;20353;-74
2023/02/14 04:27:20;;;;;;;;;;;;;;;;;;4392729;32;20312;-74
2023/02/14 04:29:45;;;;;;;;;;;;;;;;;;4392459;32;20386;-75
2023/02/14 04:32:11;;;;;;;;;;;;;;;;;;4389846;32;19934;-74
2023/02/14 04:34:36;;;;;;;;;;;;;;;;;;4390549;32;20264;-75
2023/02/14 04:37:01;;;;;;;;;;;;;;;;;;4390220;32;20307;-73
2023/02/14 04:39:26;;;;;;;;;;;;;;;;;;4389390;32;19934;-74
2023/02/14 04:41:51;;;;;;;;;;;;;;;;;;4390128;32;19968;-74
2023/02/14 04:44:16;;;;;;;;;;;;;;;;;;4390692;32;20264;-74
2023/02/14 04:46:41;;;;;;;;;;;;;;;;;;4391878;32;19934;-73
2023/02/14 04:49:06;;;;;;;;;;;;;;;;;;4393135;32;19972;-74
2023/02/14 04:51:31;;;;;;;;;;;;;;;;;;4393556;32;19971;-75
2023/02/14 04:53:57;;;;;;;;;;;;;;;;;;4394254;32;19938;-74
2023/02/14 04:56:22;;;;;;;;;;;;;;;;;;4392648;32;19954;-74
2023/02/14 04:58:47;;;;;;;;;;;;;;;;;;4391560;32;19948;-74
2023/02/14 05:01:12;;;;;;;;;;;;;;;;;;4391247;32;19972;-74
2023/02/14 05:03:37;;;;;;;;;;;;;;;;;;4391206;32;19994;-74
2023/02/14 05:06:02;;;;;;;;;;;;;;;;;;4386369;32;19941;-74
2023/02/14 05:08:27;;;;;;;;;;;;;;;;;;4381600;32;19949;-74
2023/02/14 05:10:52;;;;;;;;;;;;;;;;;;4391102;32;19937;-74
2023/02/14 05:13:17;;;;;;;;;;;;;;;;;;4393942;32;19941;-74
2023/02/14 05:15:42;;;;;;;;;;;;;;;;;;4393490;32;19934;-75
2023/02/14 05:18:08;;;;;;;;;;;;;;;;;;4394474;32;19942;-73
2023/02/14 05:20:33;;;;;;;;;;;;;;;;;;4391612;32;19950;-74
2023/02/14 05:23:02;;;;;;;;;;;;;;;;;;4392863;32;19949;-74
2023/02/14 05:25:27;;;;;;;;;;;;;;;;;;4392606;32;19979;-73
2023/02/14 05:27:52;;;;;;;;;;;;;;;;;;4394180;32;19934;-74
2023/02/14 05:30:17;;;;;;;;;;;;;;;;;;4391305;32;19942;-74
2023/02/14 05:32:42;;;;;;;;;;;;;;;;;;4390814;32;19960;-73
2023/02/14 05:35:07;;;;;;;;;;;;;;;;;;4391665;32;19938;-74
2023/02/14 05:37:32;;;;;;;;;;;;;;;;;;4392655;32;19967;-74
2023/02/14 05:39:57;;;;;;;;;;;;;;;;;;4392114;32;19993;-73
2023/02/14 05:42:23;;;;;;;;;;;;;;;;;;4392033;32;19942;-74
2023/02/14 05:44:48;;;;;;;;;;;;;;;;;;4390996;32;19984;-74
2023/02/14 05:47:13;;;;;;;;;;;;;;;;;;4393263;32;19945;-74
2023/02/14 05:49:38;;;;;;;;;;;;;;;;;;4392957;32;19933;-75
2023/02/14 05:52:03;;;;;;;;;;;;;;;;;;4394352;32;19945;-74
2023/02/14 05:54:28;;;;;;;;;;;;;;;;;;4393460;32;20325;-74
2023/02/14 05:56:53;;;;;;;;;;;;;;;;;;4393185;32;19950;-74
2023/02/14 05:59:18;;;;;;;;;;;;;;;;;;4390324;32;19953;-75
2023/02/14 06:01:44;;;;;;;;;;;;;;;;;;4392035;32;20312;-73
2023/02/14 06:04:09;;;;;;;;;;;;;;;;;;4392954;32;19977;-73
2023/02/14 06:06:34;;;;;;;;;;;;;;;;;;4390394;32;20016;-74
2023/02/14 06:08:59;;;;;;;;;;;;;;;;;;4391566;32;20363;-75
2023/02/14 06:11:24;;;;;;;;;;;;;;;;;;4392523;32;19948;-75
2023/02/14 06:13:49;;;;;;;;;;;;;;;;;;4390917;32;20011;-75
2023/02/14 06:16:14;;;;;;;;;;;;;;;;;;4390685;32;19945;-75
2023/02/14 06:18:39;;;;;;;;;;;;;;;;;;4390881;32;20291;-75
2023/02/14 06:21:04;;;;;;;;;;;;;;;;;;4392905;32;19952;-75
2023/02/14 06:23:29;;;;;;;;;;;;;;;;;;4383840;32;19973;-75
2023/02/14 06:25:55;;;;;;;;;;;;;;;;;;4391646;32;19942;-75
2023/02/14 06:28:20;;;;;;;;;;;;;;;;;;4385444;32;20008;-74
2023/02/14 06:30:45;;;;;;;;;;;;;;;;;;4390497;32;20411;-76
2023/02/14 06:33:10;;;;;;;;;;;;;;;;;;4391617;32;19964;-75
2023/02/14 06:35:35;;;;;;;;;;;;;;;;;;4391738;32;20268;-75
2023/02/14 06:38:00;;;;;;;;;;;;;;;;;;4391003;32;19951;-75
2023/02/14 06:40:25;;;;;;;;;;;;;;;;;;4391436;32;19945;-73
2023/02/14 06:42:50;;;;;;;;;;;;;;;;;;4385963;32;19946;-74
2023/02/14 06:45:15;;;;;;;;;;;;;;;;;;4376108;32;20021;-74
2023/02/14 06:47:41;;;;;;;;;;;;;;;;;;4375560;32;20255;-74
2023/02/14 06:50:06;;;;;;;;;;;;;;;;;;4376842;32;19943;-74
2023/02/14 06:52:31;;;;;;;;;;;;;;;;;;4376433;32;19973;-73
2023/02/14 06:54:56;;;;;;;;;;;;;;;;;;4375132;32;20271;-73
2023/02/14 06:57:21;;;;;;;;;;;;;;;;;;4376187;32;20347;-74
2023/02/14 06:59:46;;;;;;;;;;;;;;;;;;4377260;32;19938;-74
2023/02/14 07:02:11;;;;;;;;;;;;;;;;;;4377533;32;19973;-74
2023/02/14 07:04:36;;;;;;;;;;;;;;;;;;4374388;32;19946;-74
2023/02/14 07:07:01;;;;;;;;;;;;;;;;;;4375702;32;19943;-74
2023/02/14 07:09:26;;;;;;;;;;;;;;;;;;4376533;32;20296;-74
2023/02/14 07:11:51;;;;;;;;;;;;;;;;;;4389156;32;19949;-74
2023/02/14 07:14:17;;;;;;;;;;;;;;;;;;4390431;32;19933;-75
2023/02/14 07:16:42;;;;;;;;;;;;;;;;;;4389792;32;19975;-76
2023/02/14 07:19:07;;;;;;;;;;;;;;;;;;4398062;32;20007;-75
2023/02/14 07:21:32;;;;;;;;;;;;;;;;;;4395511;32;19937;-73
2023/02/14 07:23:57;;;;;;;;;;;;;;;;;;4386906;32;19953;-75
2023/02/14 07:26:22;;;;;;;;;;;;;;;;;;4389485;32;20034;-73
2023/02/14 07:28:48;;;;;;;;;;;;;;;;;;4390681;32;19933;-74
2023/02/14 07:31:13;;;;;;;;;;;;;;;;;;4390287;32;19950;-74
2023/02/14 07:33:38;;;;;;;;;;;;;;;;;;4389906;32;19938;-73
2023/02/14 07:36:03;;;;;;;;;;;;;;;;;;4390837;32;20035;-74
2023/02/14 07:38:29;;;;;;;;;;;;;;;;;;4389439;32;19934;-75
2023/02/14 07:40:54;;;;;;;;;;;;;;;;;;4390296;32;19985;-75
2023/02/14 07:43:19;;;;;;;;;;;;;;;;;;4390193;32;19981;-74
2023/02/14 07:45:44;;;;;;;;;;;;;;;;;;4390034;32;19938;-75
2023/02/14 07:48:09;;;;;;;;;;;;;;;;;;4389785;32;20344;-74
2023/02/14 07:50:34;;;;;;;;;;;;;;;;;;4389612;32;19956;-73
2023/02/14 07:52:59;;;;;;;;;;;;;;;;;;4391445;32;19973;-74
2023/02/14 07:55:25;;;;;;;;;;;;;;;;;;4390715;32;19989;-74
2023/02/14 07:57:50;;;;;;;;;;;;;;;;;;4384424;32;19984;-73
2023/02/14 08:00:15;;;;;;;;;;;;;;;;;;4374969;32;20039;-74
2023/02/14 08:02:40;;;;;;;;;;;;;;;;;;4374162;32;19985;-75
2023/02/14 08:05:05;;;;;;;;;;;;;;;;;;4373747;32;19953;-74
2023/02/14 08:07:30;;;;;;;;;;;;;;;;;;4376267;32;19946;-74
2023/02/14 08:09:55;;;;;;;;;;;;;;;;;;4389005;32;20342;-74
2023/02/14 08:17:48;;;;;;;;;;;;;;;;;;4390480;32;19936;-72
2023/02/14 08:20:13;;;;;;;;;;;;;;;;;;4389234;32;19938;-74
2023/02/14 08:22:38;;;;;;;;;;;;;;;;;;4394668;32;19948;-74
2023/02/14 08:25:03;;;;;;;;;;;;;;;;;;4392912;32;20010;-74
2023/02/14 08:27:28;;;;;;;;;;;;;;;;;;4393109;32;19938;-73
2023/02/14 08:29:54;;;;;;;;;;;;;;;;;;4393157;32;19933;-75
2023/02/14 08:32:19;;;;;;;;;;;;;;;;;;4394727;32;20273;-76
2023/02/14 08:34:44;;;;;;;;;;;;;;;;;;4391088;32;20114;-74
2023/02/14 08:37:09;;;;;;;;;;;;;;;;;;4393736;32;19977;-74
2023/02/14 08:39:34;;;;;;;;;;;;;;;;;;4392150;32;19938;-73
2023/02/14 08:42:00;;;;;;;;;;;;;;;;;;4393371;32;19978;-74
2023/02/14 08:44:25;;;;;;;;;;;;;;;;;;4394976;32;20343;-75
2023/02/14 08:46:50;;;;;;;;;;;;;;;;;;4397051;32;20317;-74
2023/02/14 08:49:15;;;;;;;;;;;;;;;;;;4393147;32;19933;-75
2023/02/14 08:51:40;;;;;;;;;;;;;;;;;;4393940;32;19969;-75
2023/02/14 08:54:05;;;;;;;;;;;;;;;;;;4392842;32;19949;-75
2023/02/14 08:56:30;;;;;;;;;;;;;;;;;;4394040;32;20296;-75
2023/02/14 08:58:55;;;;;;;;;;;;;;;;;;4392549;32;20259;-74
2023/02/14 09:01:20;;;;;;;;;;;;;;;;;;4392704;32;19934;-74
2023/02/14 09:03:46;;;;;;;;;;;;;;;;;;4391759;32;19983;-74
2023/02/14 09:06:11;;;;;;;;;;;;;;;;;;4390780;32;20361;-74
2023/02/14 09:08:36;;;;;;;;;;;;;;;;;;4392096;32;19938;-75
2023/02/14 09:11:01;;;;;;;;;;;;;;;;;;4391175;32;19962;-74
2023/02/14 09:13:26;;;;;;;;;;;;;;;;;;4391076;32;19942;-74
2023/02/14 09:15:51;;;;;;;;;;;;;;;;;;4392679;32;19938;-74
2023/02/14 09:18:16;;;;;;;;;;;;;;;;;;4392271;32;19942;-73
2023/02/14 09:20:43;;;;;;;;;;;;;;;;;;4391879;32;19933;-74
2023/02/14 09:23:08;;;;;;;;;;;;;;;;;;4393405;32;20328;-74
2023/02/14 09:25:33;;;;;;;;;;;;;;;;;;4392338;32;20339;-73
2023/02/14 09:27:58;;;;;;;;;;;;;;;;;;4392538;32;19934;-73
2023/02/14 09:30:23;;;;;;;;;;;;;;;;;;4392585;32;19954;-74
2023/02/14 09:32:48;;;;;;;;;;;;;;;;;;4391181;32;19937;-74
2023/02/14 09:35:14;;;;;;;;;;;;;;;;;;4392731;32;19971;-74
2023/02/14 09:40:24;;;;;;;;;;;;;;;;;;4392570;32;19941;-75
2023/02/14 09:42:49;;;;;;;;;;;;;;;;;;4391713;32;19953;-73
2023/02/14 09:45:14;;;;;;;;;;;;;;;;;;4391613;32;19942;-74
2023/02/14 09:47:39;;;;;;;;;;;;;;;;;;4391391;32;20296;-73
2023/02/14 09:50:04;;;;;;;;;;;;;;;;;;4391916;32;19989;-74
2023/02/14 09:52:30;;;;;;;;;;;;;;;;;;4392311;32;20353;-77
2023/02/14 09:54:56;;;;;;;;;;;;;;;;;;4391695;32;19947;-75
2023/02/14 09:57:21;;;;;;;;;;;;;;;;;;4391815;32;19934;-75
2023/02/14 09:59:47;;;;;;;;;;;;;;;;;;4391669;32;19934;-74
2023/02/14 10:02:12;;;;;;;;;;;;;;;;;;4392304;32;19934;-75
2023/02/14 10:04:37;;;;;;;;;;;;;;;;;;4391947;32;20310;-74
2023/02/14 10:07:07;;;;;;;;;;;;;;;;;;4390779;32;19954;-75
2023/02/14 10:09:32;;;;;;;;;;;;;;;;;;4395086;32;19946;-76
2023/02/14 10:11:57;;;;;;;;;;;;;;;;;;4392376;32;19934;-74
2023/02/14 10:14:22;;;;;;;;;;;;;;;;;;4391350;32;19938;-74
2023/02/14 10:16:48;;;;;;;;;;;;;;;;;;4393124;32;19950;-74
2023/02/14 10:19:13;;;;;;;;;;;;;;;;;;4390246;32;19948;-74
2023/02/14 10:21:38;;;;;;;;;;;;;;;;;;4391074;32;20312;-74
2023/02/14 10:24:03;;;;;;;;;;;;;;;;;;4391469;32;19934;-75
2023/02/14 10:26:28;;;;;;;;;;;;;;;;;;4393291;32;19949;-74
2023/02/14 10:28:53;;;;;;;;;;;;;;;;;;4391995;32;19934;-73
2023/02/14 10:31:18;;;;;;;;;;;;;;;;;;4392029;32;19998;-74
2023/02/14 10:33:43;;;;;;;;;;;;;;;;;;4392493;32;19975;-75
2023/02/14 10:36:08;;;;;;;;;;;;;;;;;;4391370;32;19968;-74
2023/02/14 10:38:34;;;;;;;;;;;;;;;;;;4392852;32;19934;-73
2023/02/14 10:40:59;;;;;;;;;;;;;;;;;;4390943;32;19942;-74
2023/02/14 10:43:24;;;;;;;;;;;;;;;;;;4390850;32;19968;-74
2023/02/14 10:45:49;;;;;;;;;;;;;;;;;;4391112;32;19942;-74
2023/02/14 10:48:15;;;;;;;;;;;;;;;;;;4389592;32;19938;-74
2023/02/14 10:50:40;;;;;;;;;;;;;;;;;;4391984;32;20016;-74
2023/02/14 10:53:05;;;;;;;;;;;;;;;;;;4389662;32;20279;-75
2023/02/14 10:55:30;;;;;;;;;;;;;;;;;;4392011;32;19957;-74
2023/02/14 10:57:56;;;;;;;;;;;;;;;;;;4389469;32;19938;-74
2023/02/14 11:00:21;;;;;;;;;;;;;;;;;;4391629;32;19937;-74
2023/02/14 11:02:46;;;;;;;;;;;;;;;;;;4389063;32;19972;-74
2023/02/14 11:05:11;;;;;;;;;;;;;;;;;;4389878;32;19937;-73
2023/02/14 11:07:36;;;;;;;;;;;;;;;;;;4392287;32;19987;-74
2023/02/14 11:10:01;;;;;;;;;;;;;;;;;;4391494;32;19968;-73
2023/02/14 11:12:26;;;;;;;;;;;;;;;;;;4389332;32;20341;-74
2023/02/14 11:14:51;;;;;;;;;;;;;;;;;;4390354;32;19941;-74
2023/02/14 11:17:16;;;;;;;;;;;;;;;;;;4392278;32;19979;-75
2023/02/14 11:19:41;;;;;;;;;;;;;;;;;;4392125;32;19997;-74
2023/02/14 11:22:09;;;;;;;;;;;;;;;;;;4390747;32;20296;-74
2023/02/14 11:24:34;;;;;;;;;;;;;;;;;;4390034;32;19942;-74
2023/02/14 11:26:59;;;;;;;;;;;;;;;;;;4390662;32;19952;-74
2023/02/14 11:29:24;;;;;;;;;;;;;;;;;;4391334;32;19941;-74
2023/02/14 11:31:49;;;;;;;;;;;;;;;;;;4389910;32;19999;-74
2023/02/14 11:34:14;;;;;;;;;;;;;;;;;;4390492;32;19971;-73
2023/02/14 11:36:39;;;;;;;;;;;;;;;;;;4389891;32;19942;-75
2023/02/14 11:39:04;;;;;;;;;;;;;;;;;;4391086;32;20067;-74
2023/02/14 11:41:30;;;;;;;;;;;;;;;;;;4390855;32;19956;-74
2023/02/14 11:43:55;;;;;;;;;;;;;;;;;;4392028;32;19967;-73
2023/02/14 11:46:21;;;;;;;;;;;;;;;;;;4391364;32;20316;-73
2023/02/14 11:48:46;;;;;;;;;;;;;;;;;;4389051;32;19941;-75
2023/02/14 11:51:14;;;;;;;;;;;;;;;;;;4391390;32;19942;-74
2023/02/14 11:53:39;;;;;;;;;;;;;;;;;;4390149;32;20031;-74
2023/02/14 11:56:04;;;;;;;;;;;;;;;;;;4389782;32;19942;-74
2023/02/14 11:58:30;;;;;;;;;;;;;;;;;;4390376;32;20248;-74
2023/02/14 12:00:55;;;;;;;;;;;;;;;;;;4389884;32;19934;-73
2023/02/14 12:03:20;;;;;;;;;;;;;;;;;;4389970;32;20014;-74
2023/02/14 12:05:45;;;;;;;;;;;;;;;;;;4389772;32;19937;-74
2023/02/14 12:08:11;;;;;;;;;;;;;;;;;;4391272;32;19942;-74
2023/02/14 12:10:36;;;;;;;;;;;;;;;;;;4390211;32;19946;-74
2023/02/14 12:13:01;;;;;;;;;;;;;;;;;;4391662;32;20011;-74
2023/02/14 12:15:26;;;;;;;;;;;;;;;;;;4389958;32;19971;-74
2023/02/14 12:17:51;;;;;;;;;;;;;;;;;;4389857;32;19973;-73
2023/02/14 12:20:18;;;;;;;;;;;;;;;;;;4388959;32;19941;-72
2023/02/14 12:22:43;;;;;;;;;;;;;;;;;;4390728;32;19938;-74
2023/02/14 12:25:08;;;;;;;;;;;;;;;;;;4389971;32;20005;-74
2023/02/14 12:27:33;;;;;;;;;;;;;;;;;;4389724;32;19942;-74
2023/02/14 12:29:58;;;;;;;;;;;;;;;;;;4390528;32;20324;-74
2023/02/14 12:32:24;;;;;;;;;;;;;;;;;;4388550;32;19950;-75
2023/02/14 12:34:49;;;;;;;;;;;;;;;;;;4388675;32;19944;-74
2023/02/14 12:37:14;;;;;;;;;;;;;;;;;;4388583;32;20353;-73
2023/02/14 12:39:39;;;;;;;;;;;;;;;;;;4389263;32;19938;-75
2023/02/14 12:42:04;;;;;;;;;;;;;;;;;;4393570;32;19952;-74
2023/02/14 12:44:29;;;;;;;;;;;;;;;;;;4391550;32;19957;-74
2023/02/14 12:46:54;;;;;;;;;;;;;;;;;;4391072;32;19952;-74
2023/02/14 12:49:21;;;;;;;;;;;;;;;;;;4389830;32;20361;-75
2023/02/14 12:51:46;;;;;;;;;;;;;;;;;;4391562;32;19945;-75
2023/02/14 12:54:11;;;;;;;;;;;;;;;;;;4388381;32;19934;-74
2023/02/14 12:56:36;;;;;;;;;;;;;;;;;;4390069;32;19995;-74
2023/02/14 12:59:01;;;;;;;;;;;;;;;;;;4389729;32;19938;-75
2023/02/14 13:01:26;;;;;;;;;;;;;;;;;;4390081;32;19938;-74
2023/02/14 13:03:51;;;;;;;;;;;;;;;;;;4390874;32;19944;-75
2023/02/14 13:06:17;;;;;;;;;;;;;;;;;;4388311;32;19972;-75
2023/02/14 13:08:42;;;;;;;;;;;;;;;;;;4392832;32;20312;-75
2023/02/14 13:11:07;;;;;;;;;;;;;;;;;;4391031;32;19952;-74
2023/02/14 13:13:32;;;;;;;;;;;;;;;;;;4390842;32;19948;-74
2023/02/14 13:15:57;;;;;;;;;;;;;;;;;;4392611;32;19961;-76
2023/02/14 13:18:22;;;;;;;;;;;;;;;;;;4393016;32;19938;-75
2023/02/14 13:20:47;;;;;;;;;;;;;;;;;;4394025;32;19979;-74
2023/02/14 13:23:12;;;;;;;;;;;;;;;;;;4392463;32;19938;-76
2023/02/14 13:25:39;;;;;;;;;;;;;;;;;;4391139;32;20006;-75
2023/02/14 13:28:04;;;;;;;;;;;;;;;;;;4393755;32;19985;-74
2023/02/14 13:30:30;;;;;;;;;;;;;;;;;;4392246;32;19949;-74
2023/02/14 13:32:55;;;;;;;;;;;;;;;;;;4392421;32;19994;-74
2023/02/14 13:35:20;;;;;;;;;;;;;;;;;;4392633;32;20002;-75
2023/02/14 13:37:45;;;;;;;;;;;;;;;;;;4392873;32;20298;-74
2023/02/14 13:40:11;;;;;;;;;;;;;;;;;;4393018;32;19982;-74
2023/02/14 13:42:36;;;;;;;;;;;;;;;;;;4392507;32;19934;-75
2023/02/14 13:45:01;;;;;;;;;;;;;;;;;;4393342;32;19938;-74
2023/02/14 13:47:26;;;;;;;;;;;;;;;;;;4393118;32;19953;-75
2023/02/14 13:49:51;;;;;;;;;;;;;;;;;;4392395;32;19991;-74
2023/02/14 13:52:16;;;;;;;;;;;;;;;;;;4398546;32;20315;-74
2023/02/14 13:54:41;;;;;;;;;;;;;;;;;;4392236;32;19933;-73
2023/02/14 13:57:06;;;;;;;;;;;;;;;;;;4392549;32;20312;-74
2023/02/14 13:59:31;;;;;;;;;;;;;;;;;;4390358;32;19965;-74
2023/02/14 14:01:57;;;;;;;;;;;;;;;;;;4391823;32;20270;-75
2023/02/14 14:04:22;;;;;;;;;;;;;;;;;;4392105;32;20356;-74
2023/02/14 14:06:47;;;;;;;;;;;;;;;;;;4392777;32;19972;-74
2023/02/14 14:09:12;;;;;;;;;;;;;;;;;;4390510;32;19946;-74
2023/02/14 14:11:37;;;;;;;;;;;;;;;;;;4390268;32;20276;-75
2023/02/14 14:14:03;;;;;;;;;;;;;;;;;;4391319;32;19960;-75
2023/02/14 14:16:28;;;;;;;;;;;;;;;;;;4391323;32;19973;-75
2023/02/14 14:18:53;;;;;;;;;;;;;;;;;;4387815;32;19971;-75
2023/02/14 14:21:18;;;;;;;;;;;;;;;;;;4388423;32;19941;-75
2023/02/14 14:23:43;;;;;;;;;;;;;;;;;;4389064;32;19952;-74
2023/02/14 14:26:11;;;;;;;;;;;;;;;;;;4390043;32;19937;-75
2023/02/14 14:28:36;;;;;;;;;;;;;;;;;;4388232;32;19993;-75
2023/02/14 14:31:01;;;;;;;;;;;;;;;;;;4389310;32;20015;-75
2023/02/14 14:33:27;;;;;;;;;;;;;;;;;;4390027;32;19995;-75
2023/02/14 14:35:52;;;;;;;;;;;;;;;;;;4388578;32;19937;-75
2023/02/14 14:38:26;;;;;;;;;;;;;;;;;;4390476;32;20022;-75
2023/02/14 14:40:51;;;;;;;;;;;;;;;;;;4391693;32;19950;-74
2023/02/14 14:43:16;;;;;;;;;;;;;;;;;;4390413;32;19980;-76
2023/02/14 14:45:42;;;;;;;;;;;;;;;;;;4390966;32;19937;-76
2023/02/14 14:48:07;;;;;;;;;;;;;;;;;;4390043;32;20328;-75
2023/02/14 14:50:32;;;;;;;;;;;;;;;;;;4389909;32;20217;-75
2023/02/14 14:52:57;;;;;;;;;;;;;;;;;;4390733;32;20332;-76
2023/02/14 14:55:22;;;;;;;;;;;;;;;;;;4389177;32;19956;-74
2023/02/14 14:57:47;;;;;;;;;;;;;;;;;;4390657;32;19942;-75
2023/02/14 15:00:12;;;;;;;;;;;;;;;;;;4390106;32;19945;-74
2023/02/14 15:02:38;;;;;;;;;;;;;;;;;;4390586;32;19960;-75
2023/02/14 15:05:03;;;;;;;;;;;;;;;;;;4389775;32;19942;-76
2023/02/14 15:07:29;;;;;;;;;;;;;;;;;;4388970;32;19937;-76
2023/02/14 15:09:54;;;;;;;;;;;;;;;;;;4389761;32;19990;-76
2023/02/14 15:15:03;;;;;;;;;;;;;;;;;;4385585;32;19949;-77
2023/02/14 15:17:29;;;;;;;;;;;;;;;;;;4384321;32;19942;-77
2023/02/14 15:19:54;;;;;;;;;;;;;;;;;;4391189;32;20210;-76
2023/02/14 15:22:19;;;;;;;;;;;;;;;;;;4391882;32;19990;-75
2023/02/14 15:24:44;;;;;;;;;;;;;;;;;;4390798;32;19942;-75
2023/02/14 15:27:13;;;;;;;;;;;;;;;;;;4391635;32;19953;-74
2023/02/14 15:29:38;;;;;;;;;;;;;;;;;;4388767;32;19978;-76
2023/02/14 15:32:03;;;;;;;;;;;;;;;;;;4390163;32;19942;-76
2023/02/14 15:34:31;;;;;;;;;;;;;;;;;;4389350;32;19942;-77
2023/02/14 15:37:02;;;;;;;;;;;;;;;;;;4390766;32;19953;-75
2023/02/14 15:39:27;;;;;;;;;;;;;;;;;;4389603;32;19929;-75
2023/02/14 15:41:54;;;;;;;;;;;;;;;;;;4388518;32;20345;-76
2023/02/14 15:44:19;;;;;;;;;;;;;;;;;;4390569;32;19949;-76
2023/02/14 15:46:45;;;;;;;;;;;;;;;;;;4390449;32;19952;-75
2023/02/14 15:49:10;;;;;;;;;;;;;;;;;;4395793;32;20019;-75
2023/02/14 15:51:35;;;;;;;;;;;;;;;;;;4391926;32;19938;-76
2023/02/14 15:54:00;;;;;;;;;;;;;;;;;;4390254;32;19934;-76
2023/02/14 15:56:26;;;;;;;;;;;;;;;;;;4391104;32;19961;-77
2023/02/14 15:58:51;;;;;;;;;;;;;;;;;;4390550;32;19949;-76
2023/02/14 16:01:17;;;;;;;;;;;;;;;;;;4390760;32;20266;-75
2023/02/14 16:03:43;;;;;;;;;;;;;;;;;;4390008;32;19968;-75
2023/02/14 16:06:08;;;;;;;;;;;;;;;;;;4390745;32;19941;-74
2023/02/14 16:08:33;;;;;;;;;;;;;;;;;;4390180;32;20313;-74
2023/02/14 16:10:58;;;;;;;;;;;;;;;;;;4390387;32;19937;-75
2023/02/14 16:13:26;;;;;;;;;;;;;;;;;;4390807;32;19938;-75
2023/02/14 16:15:52;;;;;;;;;;;;;;;;;;4391474;32;19997;-74
2023/02/14 16:18:17;;;;;;;;;;;;;;;;;;4389767;32;19937;-74
2023/02/14 16:20:51;;;;;;;;;;;;;;;;;;4389358;32;19965;-75
2023/02/14 16:23:16;;;;;;;;;;;;;;;;;;4388043;32;19938;-75
2023/02/14 16:25:45;;;;;;;;;;;;;;;;;;4386761;32;19941;-75
2023/02/14 16:28:13;;;;;;;;;;;;;;;;;;4389222;32;20040;-73
2023/02/14 16:30:38;;;;;;;;;;;;;;;;;;4387707;32;19938;-75
2023/02/14 16:33:03;;;;;;;;;;;;;;;;;;4389716;32;19937;-76
2023/02/14 16:35:29;;;;;;;;;;;;;;;;;;4389563;32;19946;-74
2023/02/14 16:37:54;;;;;;;;;;;;;;;;;;4390042;32;19953;-76
2023/02/14 16:40:19;;;;;;;;;;;;;;;;;;4387149;32;20328;-75
2023/02/14 16:42:44;;;;;;;;;;;;;;;;;;4390545;32;20294;-75
2023/02/14 16:45:09;;;;;;;;;;;;;;;;;;4390553;32;19941;-76
2023/02/14 16:47:34;;;;;;;;;;;;;;;;;;4391333;32;19972;-74
2023/02/14 16:50:00;;;;;;;;;;;;;;;;;;4389944;32;19946;-75
2023/02/14 16:52:25;;;;;;;;;;;;;;;;;;4392195;32;19981;-74
2023/02/14 16:54:50;;;;;;;;;;;;;;;;;;4391478;32;19957;-75
2023/02/14 16:57:15;;;;;;;;;;;;;;;;;;4389748;32;19942;-75